sensor_id;sensor_type;location;lat;lon;timestamp;temperature;humidity
40153;DHT22;26371;56.992;23.912;2023-04-25T05:06:23;12.80;99.90
40153;DHT22;26371;56.992;23.912;2023-04-25T05:12:18;12.90;99.90
40153;DHT22;26371;56.992;23.912;2023-04-25T05:15:16;12.90;99.90
40153;DHT22;26371;56.992;23.912;2023-04-25T05:18:08;13.00;99.90
40153;DHT22;26371;56.992;23.912;2023-04-25T05:20:55;13.00;99.90
40153;DHT22;26371;56.992;23.912;2023-04-25T05:23:45;13.00;99.90
40153;DHT22;26371;56.992;23.912;2023-04-25T05:26:32;13.20;99.90
40153;DHT22;26371;56.992;23.912;2023-04-25T05:29:12;13.20;99.90
40153;DHT22;26371;56.992;23.912;2023-04-25T05:32:04;13.30;99.90
40153;DHT22;26371;56.992;23.912;2023-04-25T05:34:34;13.30;99.90
40153;DHT22;26371;56.992;23.912;2023-04-25T05:37:06;13.40;99.90
40153;DHT22;26371;56.992;23.912;2023-04-25T05:39:46;13.50;99.70
40153;DHT22;26371;56.992;23.912;2023-04-25T05:42:35;13.50;99.60
40153;DHT22;26371;56.992;23.912;2023-04-25T05:45:22;13.50;99.70
40153;DHT22;26371;56.992;23.912;2023-04-25T05:48:26;13.50;99.60
40153;DHT22;26371;56.992;23.912;2023-04-25T05:51:14;13.50;99.60
40153;DHT22;26371;56.992;23.912;2023-04-25T05:53:56;13.60;99.50
40153;DHT22;26371;56.992;23.912;2023-04-25T05:56:27;13.50;99.60
40153;DHT22;26371;56.992;23.912;2023-04-25T05:58:56;13.50;99.40
40153;DHT22;26371;56.992;23.912;2023-04-25T06:01:25;13.50;99.40
40153;DHT22;26371;56.992;23.912;2023-04-25T06:03:53;13.50;99.50
40153;DHT22;26371;56.992;23.912;2023-04-25T06:06:22;13.50;99.60
40153;DHT22;26371;56.992;23.912;2023-04-25T06:08:50;13.40;99.40
40153;DHT22;26371;56.992;23.912;2023-04-25T06:11:19;13.50;99.70
40153;DHT22;26371;56.992;23.912;2023-04-25T06:13:48;13.40;99.50
40153;DHT22;26371;56.992;23.912;2023-04-25T06:16:17;13.40;99.60
40153;DHT22;26371;56.992;23.912;2023-04-25T06:18:46;13.50;99.90
40153;DHT22;26371;56.992;23.912;2023-04-25T06:21:14;13.70;99.90
40153;DHT22;26371;56.992;23.912;2023-04-25T06:23:43;13.80;99.80
40153;DHT22;26371;56.992;23.912;2023-04-25T06:26:18;14.00;99.60
40153;DHT22;26371;56.992;23.912;2023-04-25T06:28:49;14.20;99.40
40153;DHT22;26371;56.992;23.912;2023-04-25T06:31:17;14.30;98.90
40153;DHT22;26371;56.992;23.912;2023-04-25T06:33:47;14.50;99.10
40153;DHT22;26371;56.992;23.912;2023-04-25T06:36:16;14.60;98.80
40153;DHT22;26371;56.992;23.912;2023-04-25T06:38:52;14.60;98.70
40153;DHT22;26371;56.992;23.912;2023-04-25T06:41:21;14.70;98.40
40153;DHT22;26371;56.992;23.912;2023-04-25T06:43:51;14.80;98.20
40153;DHT22;26371;56.992;23.912;2023-04-25T06:46:37;14.80;98.40
40153;DHT22;26371;56.992;23.912;2023-04-25T06:49:06;14.90;98.50
40153;DHT22;26371;56.992;23.912;2023-04-25T06:51:35;15.00;98.20
40153;DHT22;26371;56.992;23.912;2023-04-25T06:54:03;15.10;98.20
40153;DHT22;26371;56.992;23.912;2023-04-25T06:56:39;15.10;98.20
40153;DHT22;26371;56.992;23.912;2023-04-25T06:59:13;15.20;97.50
40153;DHT22;26371;56.992;23.912;2023-04-25T07:01:44;15.30;97.90
40153;DHT22;26371;56.992;23.912;2023-04-25T07:06:52;15.50;99.90
40153;DHT22;26371;56.992;23.912;2023-04-25T07:09:30;15.60;99.20
40153;DHT22;26371;56.992;23.912;2023-04-25T07:12:03;15.70;97.30
40153;DHT22;26371;56.992;23.912;2023-04-25T07:14:34;15.60;97.50
40153;DHT22;26371;56.992;23.912;2023-04-25T07:17:02;15.70;97.40
40153;DHT22;26371;56.992;23.912;2023-04-25T07:19:34;15.80;97.50
40153;DHT22;26371;56.992;23.912;2023-04-25T07:22:03;15.90;97.30
40153;DHT22;26371;56.992;23.912;2023-04-25T07:24:33;16.00;97.20
40153;DHT22;26371;56.992;23.912;2023-04-25T07:27:01;16.10;97.10
40153;DHT22;26371;56.992;23.912;2023-04-25T07:29:52;16.20;97.10
40153;DHT22;26371;56.992;23.912;2023-04-25T07:32:22;16.30;97.10
40153;DHT22;26371;56.992;23.912;2023-04-25T07:34:50;16.50;96.50
40153;DHT22;26371;56.992;23.912;2023-04-25T07:37:19;16.50;95.70
40153;DHT22;26371;56.992;23.912;2023-04-25T07:40:02;16.60;96.00
40153;DHT22;26371;56.992;23.912;2023-04-25T07:42:32;16.70;95.40
40153;DHT22;26371;56.992;23.912;2023-04-25T07:45:02;16.80;95.00
40153;DHT22;26371;56.992;23.912;2023-04-25T07:47:31;16.90;94.90
40153;DHT22;26371;56.992;23.912;2023-04-25T07:49:59;16.90;94.80
40153;DHT22;26371;56.992;23.912;2023-04-25T07:52:29;17.10;94.90
40153;DHT22;26371;56.992;23.912;2023-04-25T07:55:11;17.20;94.80
40153;DHT22;26371;56.992;23.912;2023-04-25T07:57:48;17.20;94.50
40153;DHT22;26371;56.992;23.912;2023-04-25T08:00:18;17.40;94.30
40153;DHT22;26371;56.992;23.912;2023-04-25T08:02:54;17.40;94.40
40153;DHT22;26371;56.992;23.912;2023-04-25T08:05:23;17.50;93.50
40153;DHT22;26371;56.992;23.912;2023-04-25T08:08:00;17.60;93.60
40153;DHT22;26371;56.992;23.912;2023-04-25T08:10:29;17.60;93.50
40153;DHT22;26371;56.992;23.912;2023-04-25T08:12:58;17.70;93.10
40153;DHT22;26371;56.992;23.912;2023-04-25T08:15:27;17.80;92.90
40153;DHT22;26371;56.992;23.912;2023-04-25T08:17:56;17.90;93.10
40153;DHT22;26371;56.992;23.912;2023-04-25T08:20:25;17.90;93.40
40153;DHT22;26371;56.992;23.912;2023-04-25T08:22:55;18.10;92.70
40153;DHT22;26371;56.992;23.912;2023-04-25T08:25:50;18.10;92.90
40153;DHT22;26371;56.992;23.912;2023-04-25T08:28:23;18.20;92.80
40153;DHT22;26371;56.992;23.912;2023-04-25T08:30:53;18.20;92.50
40153;DHT22;26371;56.992;23.912;2023-04-25T08:33:22;18.40;92.30
40153;DHT22;26371;56.992;23.912;2023-04-25T08:36:26;18.40;91.90
40153;DHT22;26371;56.992;23.912;2023-04-25T08:38:58;18.50;92.20
40153;DHT22;26371;56.992;23.912;2023-04-25T08:41:27;18.50;91.20
40153;DHT22;26371;56.992;23.912;2023-04-25T08:43:56;18.60;90.50
40153;DHT22;26371;56.992;23.912;2023-04-25T08:46:28;18.60;91.00
40153;DHT22;26371;56.992;23.912;2023-04-25T08:49:25;18.70;91.00
40153;DHT22;26371;56.992;23.912;2023-04-25T08:51:53;18.80;90.50
40153;DHT22;26371;56.992;23.912;2023-04-25T08:54:25;18.90;90.40
40153;DHT22;26371;56.992;23.912;2023-04-25T08:57:02;18.90;90.20
40153;DHT22;26371;56.992;23.912;2023-04-25T08:59:32;19.00;89.20
40153;DHT22;26371;56.992;23.912;2023-04-25T09:02:04;19.10;89.70
40153;DHT22;26371;56.992;23.912;2023-04-25T09:04:33;19.20;90.10
40153;DHT22;26371;56.992;23.912;2023-04-25T09:07:01;19.30;90.20
40153;DHT22;26371;56.992;23.912;2023-04-25T09:09:30;19.40;90.40
40153;DHT22;26371;56.992;23.912;2023-04-25T09:11:58;19.40;89.60
40153;DHT22;26371;56.992;23.912;2023-04-25T09:14:28;19.50;90.00
40153;DHT22;26371;56.992;23.912;2023-04-25T09:17:19;19.50;88.50
40153;DHT22;26371;56.992;23.912;2023-04-25T09:19:51;19.60;89.40
40153;DHT22;26371;56.992;23.912;2023-04-25T09:22:26;19.70;88.00
40153;DHT22;26371;56.992;23.912;2023-04-25T09:24:55;19.70;88.10
40153;DHT22;26371;56.992;23.912;2023-04-25T09:27:26;19.80;87.50
40153;DHT22;26371;56.992;23.912;2023-04-25T09:30:14;19.90;85.10
40153;DHT22;26371;56.992;23.912;2023-04-25T09:33:05;19.90;85.30
40153;DHT22;26371;56.992;23.912;2023-04-25T09:35:36;20.00;85.40
40153;DHT22;26371;56.992;23.912;2023-04-25T09:38:08;20.10;85.80
40153;DHT22;26371;56.992;23.912;2023-04-25T09:40:56;20.10;85.40
40153;DHT22;26371;56.992;23.912;2023-04-25T09:43:36;20.20;85.50
40153;DHT22;26371;56.992;23.912;2023-04-25T09:46:07;20.30;83.70
40153;DHT22;26371;56.992;23.912;2023-04-25T09:48:41;20.40;83.80
40153;DHT22;26371;56.992;23.912;2023-04-25T09:51:17;20.50;85.00
40153;DHT22;26371;56.992;23.912;2023-04-25T09:53:46;20.60;83.00
40153;DHT22;26371;56.992;23.912;2023-04-25T09:56:31;20.60;83.30
40153;DHT22;26371;56.992;23.912;2023-04-25T09:59:06;20.70;82.10
40153;DHT22;26371;56.992;23.912;2023-04-25T10:01:36;20.80;84.10
40153;DHT22;26371;56.992;23.912;2023-04-25T10:04:13;21.00;84.30
40153;DHT22;26371;56.992;23.912;2023-04-25T10:07:05;21.00;83.60
40153;DHT22;26371;56.992;23.912;2023-04-25T10:09:36;20.80;83.50
40153;DHT22;26371;56.992;23.912;2023-04-25T10:12:05;20.80;84.50
40153;DHT22;26371;56.992;23.912;2023-04-25T10:14:34;20.70;84.50
40153;DHT22;26371;56.992;23.912;2023-04-25T10:17:02;20.70;84.00
40153;DHT22;26371;56.992;23.912;2023-04-25T10:19:33;20.80;83.20
40153;DHT22;26371;56.992;23.912;2023-04-25T10:22:06;20.90;81.90
40153;DHT22;26371;56.992;23.912;2023-04-25T10:24:35;21.00;82.60
40153;DHT22;26371;56.992;23.912;2023-04-25T10:27:04;21.10;81.60
40153;DHT22;26371;56.992;23.912;2023-04-25T10:29:32;21.10;82.30
40153;DHT22;26371;56.992;23.912;2023-04-25T10:32:00;21.10;81.60
40153;DHT22;26371;56.992;23.912;2023-04-25T10:34:41;21.10;80.60
40153;DHT22;26371;56.992;23.912;2023-04-25T10:37:10;21.10;79.30
40153;DHT22;26371;56.992;23.912;2023-04-25T10:39:39;21.10;79.80
40153;DHT22;26371;56.992;23.912;2023-04-25T10:42:08;21.20;81.30
40153;DHT22;26371;56.992;23.912;2023-04-25T10:44:37;21.40;81.20
40153;DHT22;26371;56.992;23.912;2023-04-25T10:47:06;21.50;80.80
40153;DHT22;26371;56.992;23.912;2023-04-25T10:49:35;21.60;79.40
40153;DHT22;26371;56.992;23.912;2023-04-25T10:52:12;21.70;79.40
40153;DHT22;26371;56.992;23.912;2023-04-25T10:54:41;21.80;80.10
40153;DHT22;26371;56.992;23.912;2023-04-25T11:00:01;21.70;80.80
40153;DHT22;26371;56.992;23.912;2023-04-25T11:02:36;21.60;79.20
40153;DHT22;26371;56.992;23.912;2023-04-25T11:05:05;21.40;81.00
40153;DHT22;26371;56.992;23.912;2023-04-25T11:07:37;21.20;82.10
40153;DHT22;26371;56.992;23.912;2023-04-25T11:10:06;21.10;80.90
40153;DHT22;26371;56.992;23.912;2023-04-25T11:12:35;20.90;80.80
40153;DHT22;26371;56.992;23.912;2023-04-25T11:15:03;20.70;81.20
40153;DHT22;26371;56.992;23.912;2023-04-25T11:17:32;20.70;81.40
40153;DHT22;26371;56.992;23.912;2023-04-25T11:20:01;20.70;80.80
40153;DHT22;26371;56.992;23.912;2023-04-25T11:22:33;20.50;81.10
40153;DHT22;26371;56.992;23.912;2023-04-25T11:25:06;20.50;79.90
40153;DHT22;26371;56.992;23.912;2023-04-25T11:27:37;20.50;79.40
40153;DHT22;26371;56.992;23.912;2023-04-25T11:30:12;20.60;81.10
40153;DHT22;26371;56.992;23.912;2023-04-25T11:32:42;20.70;81.20
40153;DHT22;26371;56.992;23.912;2023-04-25T11:35:10;20.70;80.60
40153;DHT22;26371;56.992;23.912;2023-04-25T11:37:39;20.70;80.90
40153;DHT22;26371;56.992;23.912;2023-04-25T11:40:09;20.60;79.50
40153;DHT22;26371;56.992;23.912;2023-04-25T11:42:39;20.50;80.40
40153;DHT22;26371;56.992;23.912;2023-04-25T11:45:07;20.40;81.10
40153;DHT22;26371;56.992;23.912;2023-04-25T11:47:36;20.30;79.20
40153;DHT22;26371;56.992;23.912;2023-04-25T11:50:05;20.20;79.70
40153;DHT22;26371;56.992;23.912;2023-04-25T11:52:36;20.10;79.60
40153;DHT22;26371;56.992;23.912;2023-04-25T11:55:05;20.10;80.30
40153;DHT22;26371;56.992;23.912;2023-04-25T11:57:38;20.10;82.30
40153;DHT22;26371;56.992;23.912;2023-04-25T12:00:11;20.10;80.60
40153;DHT22;26371;56.992;23.912;2023-04-25T12:02:45;20.10;80.40
40153;DHT22;26371;56.992;23.912;2023-04-25T12:05:15;20.10;80.80
40153;DHT22;26371;56.992;23.912;2023-04-25T12:07:46;20.10;79.50
40153;DHT22;26371;56.992;23.912;2023-04-25T12:10:15;20.10;78.60
40153;DHT22;26371;56.992;23.912;2023-04-25T12:12:45;20.00;79.10
40153;DHT22;26371;56.992;23.912;2023-04-25T12:15:15;19.90;79.60
40153;DHT22;26371;56.992;23.912;2023-04-25T12:17:44;19.90;80.00
40153;DHT22;26371;56.992;23.912;2023-04-25T12:20:14;19.80;80.50
40153;DHT22;26371;56.992;23.912;2023-04-25T12:22:42;19.80;80.60
40153;DHT22;26371;56.992;23.912;2023-04-25T12:25:13;19.80;81.00
40153;DHT22;26371;56.992;23.912;2023-04-25T12:28:12;19.70;81.20
40153;DHT22;26371;56.992;23.912;2023-04-25T12:30:56;19.70;81.10
40153;DHT22;26371;56.992;23.912;2023-04-25T12:33:26;19.60;81.00
40153;DHT22;26371;56.992;23.912;2023-04-25T12:35:54;19.50;80.90
40153;DHT22;26371;56.992;23.912;2023-04-25T12:38:24;19.50;80.90
40153;DHT22;26371;56.992;23.912;2023-04-25T12:40:53;19.50;81.50
40153;DHT22;26371;56.992;23.912;2023-04-25T12:43:25;19.40;82.50
40153;DHT22;26371;56.992;23.912;2023-04-25T12:45:55;19.40;81.90
40153;DHT22;26371;56.992;23.912;2023-04-25T12:48:25;19.40;83.00
40153;DHT22;26371;56.992;23.912;2023-04-25T12:50:53;19.50;83.00
40153;DHT22;26371;56.992;23.912;2023-04-25T12:53:22;19.50;83.00
40153;DHT22;26371;56.992;23.912;2023-04-25T12:55:53;19.50;81.20
40153;DHT22;26371;56.992;23.912;2023-04-25T12:58:29;19.60;81.70
40153;DHT22;26371;56.992;23.912;2023-04-25T13:00:57;19.60;81.50
40153;DHT22;26371;56.992;23.912;2023-04-25T13:03:26;19.60;81.80
40153;DHT22;26371;56.992;23.912;2023-04-25T13:05:54;19.70;81.20
40153;DHT22;26371;56.992;23.912;2023-04-25T13:08:23;19.70;80.60
40153;DHT22;26371;56.992;23.912;2023-04-25T13:10:51;19.70;80.20
40153;DHT22;26371;56.992;23.912;2023-04-25T13:13:21;19.70;79.00
40153;DHT22;26371;56.992;23.912;2023-04-25T13:15:51;19.60;80.30
40153;DHT22;26371;56.992;23.912;2023-04-25T13:18:19;19.70;78.70
40153;DHT22;26371;56.992;23.912;2023-04-25T13:20:48;19.90;80.30
40153;DHT22;26371;56.992;23.912;2023-04-25T13:23:16;20.20;78.70
40153;DHT22;26371;56.992;23.912;2023-04-25T13:25:47;20.50;78.80
40153;DHT22;26371;56.992;23.912;2023-04-25T13:28:15;20.70;77.80
40153;DHT22;26371;56.992;23.912;2023-04-25T13:30:45;20.80;76.70
40153;DHT22;26371;56.992;23.912;2023-04-25T13:33:16;20.90;78.10
40153;DHT22;26371;56.992;23.912;2023-04-25T13:35:44;21.00;78.30
40153;DHT22;26371;56.992;23.912;2023-04-25T13:38:13;21.00;77.60
40153;DHT22;26371;56.992;23.912;2023-04-25T13:40:42;21.10;77.10
40153;DHT22;26371;56.992;23.912;2023-04-25T13:43:10;21.10;78.00
40153;DHT22;26371;56.992;23.912;2023-04-25T13:45:38;21.10;77.50
40153;DHT22;26371;56.992;23.912;2023-04-25T13:48:07;21.20;77.40
40153;DHT22;26371;56.992;23.912;2023-04-25T13:50:38;21.20;78.00
40153;DHT22;26371;56.992;23.912;2023-04-25T13:53:06;21.10;78.70
40153;DHT22;26371;56.992;23.912;2023-04-25T13:55:35;20.90;79.10
40153;DHT22;26371;56.992;23.912;2023-04-25T13:58:05;20.80;80.10
40153;DHT22;26371;56.992;23.912;2023-04-25T14:00:38;20.60;80.70
40153;DHT22;26371;56.992;23.912;2023-04-25T14:03:07;20.50;80.90
40153;DHT22;26371;56.992;23.912;2023-04-25T14:05:35;20.40;81.10
40153;DHT22;26371;56.992;23.912;2023-04-25T14:08:07;20.40;82.20
40153;DHT22;26371;56.992;23.912;2023-04-25T14:10:36;20.30;81.50
40153;DHT22;26371;56.992;23.912;2023-04-25T14:13:05;20.40;81.70
40153;DHT22;26371;56.992;23.912;2023-04-25T14:15:36;20.30;81.10
40153;DHT22;26371;56.992;23.912;2023-04-25T14:18:05;20.30;80.40
40153;DHT22;26371;56.992;23.912;2023-04-25T14:20:34;20.40;80.80
40153;DHT22;26371;56.992;23.912;2023-04-25T14:23:02;20.50;80.80
40153;DHT22;26371;56.992;23.912;2023-04-25T14:25:32;20.60;80.30
40153;DHT22;26371;56.992;23.912;2023-04-25T14:28:01;20.60;80.90
40153;DHT22;26371;56.992;23.912;2023-04-25T14:30:29;20.50;80.70
40153;DHT22;26371;56.992;23.912;2023-04-25T14:32:58;20.20;81.50
40153;DHT22;26371;56.992;23.912;2023-04-25T14:35:26;20.00;81.80
40153;DHT22;26371;56.992;23.912;2023-04-25T14:37:55;20.10;82.20
40153;DHT22;26371;56.992;23.912;2023-04-25T14:40:23;20.10;81.80
40153;DHT22;26371;56.992;23.912;2023-04-25T14:42:53;20.00;82.20
40153;DHT22;26371;56.992;23.912;2023-04-25T14:45:22;20.00;83.00
40153;DHT22;26371;56.992;23.912;2023-04-25T14:47:50;20.10;82.40
40153;DHT22;26371;56.992;23.912;2023-04-25T14:50:19;20.10;82.10
40153;DHT22;26371;56.992;23.912;2023-04-25T14:52:47;20.00;82.90
40153;DHT22;26371;56.992;23.912;2023-04-25T14:55:15;19.80;82.70
40153;DHT22;26371;56.992;23.912;2023-04-25T14:57:44;19.50;83.60
40153;DHT22;26371;56.992;23.912;2023-04-25T15:00:14;19.30;84.20
40153;DHT22;26371;56.992;23.912;2023-04-25T15:02:44;19.40;84.90
40153;DHT22;26371;56.992;23.912;2023-04-25T15:05:14;19.30;85.20
40153;DHT22;26371;56.992;23.912;2023-04-25T15:07:43;19.10;86.00
40153;DHT22;26371;56.992;23.912;2023-04-25T15:10:11;19.00;86.40
40153;DHT22;26371;56.992;23.912;2023-04-25T15:12:43;18.80;86.90
40153;DHT22;26371;56.992;23.912;2023-04-25T15:15:15;18.60;87.50
40153;DHT22;26371;56.992;23.912;2023-04-25T15:17:55;18.40;88.10
40153;DHT22;26371;56.992;23.912;2023-04-25T15:20:25;18.30;89.00
40153;DHT22;26371;56.992;23.912;2023-04-25T15:22:54;18.60;89.00
40153;DHT22;26371;56.992;23.912;2023-04-25T15:25:22;18.70;88.60
40153;DHT22;26371;56.992;23.912;2023-04-25T15:27:51;18.60;88.30
40153;DHT22;26371;56.992;23.912;2023-04-25T15:30:21;18.50;89.20
40153;DHT22;26371;56.992;23.912;2023-04-25T15:32:50;18.30;89.50
40153;DHT22;26371;56.992;23.912;2023-04-25T15:35:18;18.30;89.20
40153;DHT22;26371;56.992;23.912;2023-04-25T15:37:47;18.30;89.50
40153;DHT22;26371;56.992;23.912;2023-04-25T15:40:15;18.20;89.60
40153;DHT22;26371;56.992;23.912;2023-04-25T15:42:44;18.00;89.50
40153;DHT22;26371;56.992;23.912;2023-04-25T15:45:14;17.90;89.80
40153;DHT22;26371;56.992;23.912;2023-04-25T15:47:46;17.80;90.00
40153;DHT22;26371;56.992;23.912;2023-04-25T15:50:15;17.80;90.20
40153;DHT22;26371;56.992;23.912;2023-04-25T15:52:43;17.60;90.30
40153;DHT22;26371;56.992;23.912;2023-04-25T15:55:12;17.60;90.30
40153;DHT22;26371;56.992;23.912;2023-04-25T15:57:40;17.50;90.40
40153;DHT22;26371;56.992;23.912;2023-04-25T16:00:09;17.40;90.60
40153;DHT22;26371;56.992;23.912;2023-04-25T16:02:39;17.40;90.70
40153;DHT22;26371;56.992;23.912;2023-04-25T16:05:09;17.40;90.90
40153;DHT22;26371;56.992;23.912;2023-04-25T16:07:40;17.30;91.00
40153;DHT22;26371;56.992;23.912;2023-04-25T16:10:10;17.20;91.10
40153;DHT22;26371;56.992;23.912;2023-04-25T16:12:38;17.10;91.40
40153;DHT22;26371;56.992;23.912;2023-04-25T16:15:07;16.90;91.80
40153;DHT22;26371;56.992;23.912;2023-04-25T16:17:36;16.60;92.10
40153;DHT22;26371;56.992;23.912;2023-04-25T16:20:04;16.40;92.30
40153;DHT22;26371;56.992;23.912;2023-04-25T16:22:38;16.70;99.90
40153;DHT22;26371;56.992;23.912;2023-04-25T16:25:07;16.20;99.90
40153;DHT22;26371;56.992;23.912;2023-04-25T16:27:36;16.20;99.90
40153;DHT22;26371;56.992;23.912;2023-04-25T16:30:06;16.10;99.90
40153;DHT22;26371;56.992;23.912;2023-04-25T16:32:35;16.10;99.90
40153;DHT22;26371;56.992;23.912;2023-04-25T16:35:04;16.10;99.90
40153;DHT22;26371;56.992;23.912;2023-04-25T16:37:32;16.10;99.90
40153;DHT22;26371;56.992;23.912;2023-04-25T16:40:02;16.10;99.90
40153;DHT22;26371;56.992;23.912;2023-04-25T16:42:32;16.10;99.90
40153;DHT22;26371;56.992;23.912;2023-04-25T16:45:00;16.10;99.90
40153;DHT22;26371;56.992;23.912;2023-04-25T16:47:28;16.10;99.90
40153;DHT22;26371;56.992;23.912;2023-04-25T16:49:58;16.10;99.90
40153;DHT22;26371;56.992;23.912;2023-04-25T16:52:27;16.10;99.90
40153;DHT22;26371;56.992;23.912;2023-04-25T16:54:55;16.10;99.90
40153;DHT22;26371;56.992;23.912;2023-04-25T16:57:25;16.00;99.90
40153;DHT22;26371;56.992;23.912;2023-04-25T16:59:53;15.90;99.90
40153;DHT22;26371;56.992;23.912;2023-04-25T17:02:22;16.00;99.90
40153;DHT22;26371;56.992;23.912;2023-04-25T17:04:50;15.90;99.90
40153;DHT22;26371;56.992;23.912;2023-04-25T17:07:20;15.80;99.90
40153;DHT22;26371;56.992;23.912;2023-04-25T17:09:50;15.80;99.90
40153;DHT22;26371;56.992;23.912;2023-04-25T17:29:45;14.90;95.20
40153;DHT22;26371;56.992;23.912;2023-04-25T17:32:13;14.90;95.40
40153;DHT22;26371;56.992;23.912;2023-04-25T17:34:43;14.60;95.80
40153;DHT22;26371;56.992;23.912;2023-04-25T17:37:14;14.40;96.20
40153;DHT22;26371;56.992;23.912;2023-04-25T17:39:43;14.30;96.10
40153;DHT22;26371;56.992;23.912;2023-04-25T17:42:15;14.20;96.10
40153;DHT22;26371;56.992;23.912;2023-04-25T17:44:45;14.20;96.30
40153;DHT22;26371;56.992;23.912;2023-04-25T17:47:15;14.10;96.80
40153;DHT22;26371;56.992;23.912;2023-04-25T17:49:43;13.80;97.40
40153;DHT22;26371;56.992;23.912;2023-04-25T17:52:12;13.70;98.00
40153;DHT22;26371;56.992;23.912;2023-04-25T17:54:40;13.80;98.90
40153;DHT22;26371;56.992;23.912;2023-04-25T17:57:09;13.30;99.40
40153;DHT22;26371;56.992;23.912;2023-04-25T17:59:37;13.20;99.70
40153;DHT22;26371;56.992;23.912;2023-04-25T18:02:07;13.10;99.90
40153;DHT22;26371;56.992;23.912;2023-04-25T18:04:36;12.90;99.90
40153;DHT22;26371;56.992;23.912;2023-04-25T18:07:05;12.80;99.90
40153;DHT22;26371;56.992;23.912;2023-04-25T18:09:33;12.60;99.90
40153;DHT22;26371;56.992;23.912;2023-04-25T18:12:02;12.40;99.90
40153;DHT22;26371;56.992;23.912;2023-04-25T18:14:30;12.20;99.90
40153;DHT22;26371;56.992;23.912;2023-04-25T18:17:00;12.10;99.90
40153;DHT22;26371;56.992;23.912;2023-04-25T18:19:31;12.00;99.90
40153;DHT22;26371;56.992;23.912;2023-04-25T18:22:01;12.00;99.90
40153;DHT22;26371;56.992;23.912;2023-04-25T18:24:30;12.00;99.90
40153;DHT22;26371;56.992;23.912;2023-04-25T18:26:59;12.00;99.90
40153;DHT22;26371;56.992;23.912;2023-04-25T18:29:28;12.10;99.90
40153;DHT22;26371;56.992;23.912;2023-04-25T18:31:59;12.10;99.90
40153;DHT22;26371;56.992;23.912;2023-04-25T18:34:33;12.10;99.90
40153;DHT22;26371;56.992;23.912;2023-04-25T18:37:01;12.00;99.90
40153;DHT22;26371;56.992;23.912;2023-04-25T18:39:30;12.00;99.90
40153;DHT22;26371;56.992;23.912;2023-04-25T18:41:58;12.10;99.90
40153;DHT22;26371;56.992;23.912;2023-04-25T18:44:32;12.00;99.90
40153;DHT22;26371;56.992;23.912;2023-04-25T18:47:06;11.90;99.90
40153;DHT22;26371;56.992;23.912;2023-04-25T18:49:36;12.00;99.90
40153;DHT22;26371;56.992;23.912;2023-04-25T18:52:04;11.90;99.90
40153;DHT22;26371;56.992;23.912;2023-04-25T18:54:36;11.90;99.90
40153;DHT22;26371;56.992;23.912;2023-04-25T18:57:05;11.80;99.90
40153;DHT22;26371;56.992;23.912;2023-04-25T18:59:33;11.80;99.90
40153;DHT22;26371;56.992;23.912;2023-04-25T19:02:02;11.80;99.90
40153;DHT22;26371;56.992;23.912;2023-04-25T19:04:31;11.70;99.90
40153;DHT22;26371;56.992;23.912;2023-04-25T19:36:48;11.10;99.90
40153;DHT22;26371;56.992;23.912;2023-04-25T19:39:18;11.10;99.90
40153;DHT22;26371;56.992;23.912;2023-04-25T19:41:48;11.00;99.90
40153;DHT22;26371;56.992;23.912;2023-04-25T19:44:17;10.90;99.90
40153;DHT22;26371;56.992;23.912;2023-04-25T19:46:47;10.80;99.90
40153;DHT22;26371;56.992;23.912;2023-04-25T19:49:15;10.80;99.90
40153;DHT22;26371;56.992;23.912;2023-04-25T19:51:44;10.60;99.90
40153;DHT22;26371;56.992;23.912;2023-04-25T19:54:14;10.50;99.90
40153;DHT22;26371;56.992;23.912;2023-04-25T19:56:42;10.40;99.90
40153;DHT22;26371;56.992;23.912;2023-04-25T19:59:10;10.30;99.90
40153;DHT22;26371;56.992;23.912;2023-04-25T20:01:39;10.30;99.90
40153;DHT22;26371;56.992;23.912;2023-04-25T20:04:07;10.20;99.90
40153;DHT22;26371;56.992;23.912;2023-04-25T20:06:35;10.20;99.90
40153;DHT22;26371;56.992;23.912;2023-04-25T20:09:04;10.20;99.90
40153;DHT22;26371;56.992;23.912;2023-04-25T20:11:36;10.10;99.90
40153;DHT22;26371;56.992;23.912;2023-04-25T20:14:05;10.10;99.90
40153;DHT22;26371;56.992;23.912;2023-04-25T20:16:33;10.10;99.90
40153;DHT22;26371;56.992;23.912;2023-04-25T20:19:02;10.10;99.90
40153;DHT22;26371;56.992;23.912;2023-04-25T20:21:31;10.10;99.90
40153;DHT22;26371;56.992;23.912;2023-04-25T20:24:00;10.10;99.90
40153;DHT22;26371;56.992;23.912;2023-04-25T20:26:31;10.10;99.90
40153;DHT22;26371;56.992;23.912;2023-04-25T20:29:03;10.10;99.90
40153;DHT22;26371;56.992;23.912;2023-04-25T20:31:33;10.20;99.90
40153;DHT22;26371;56.992;23.912;2023-04-25T20:34:02;10.20;99.90
40153;DHT22;26371;56.992;23.912;2023-04-25T20:36:31;10.20;99.90
40153;DHT22;26371;56.992;23.912;2023-04-25T20:38:59;10.30;99.90
40153;DHT22;26371;56.992;23.912;2023-04-25T20:41:27;10.30;99.90
40153;DHT22;26371;56.992;23.912;2023-04-25T20:43:57;10.30;99.90
40153;DHT22;26371;56.992;23.912;2023-04-25T20:46:28;10.30;99.90
40153;DHT22;26371;56.992;23.912;2023-04-25T20:48:57;10.30;99.90
40153;DHT22;26371;56.992;23.912;2023-04-25T20:51:27;10.30;99.90
40153;DHT22;26371;56.992;23.912;2023-04-25T20:53:56;10.30;99.90
40153;DHT22;26371;56.992;23.912;2023-04-25T20:56:24;10.40;99.90
40153;DHT22;26371;56.992;23.912;2023-04-25T20:58:53;10.40;99.90
40153;DHT22;26371;56.992;23.912;2023-04-25T21:01:22;10.30;99.90
40153;DHT22;26371;56.992;23.912;2023-04-25T21:03:52;10.20;99.90
40153;DHT22;26371;56.992;23.912;2023-04-25T21:06:21;10.10;99.90
40153;DHT22;26371;56.992;23.912;2023-04-25T21:08:49;10.10;99.90
40153;DHT22;26371;56.992;23.912;2023-04-25T21:11:18;10.10;99.90
40153;DHT22;26371;56.992;23.912;2023-04-25T21:13:47;10.00;99.90
40153;DHT22;26371;56.992;23.912;2023-04-25T21:16:15;9.90;99.90
40153;DHT22;26371;56.992;23.912;2023-04-25T21:18:44;9.90;99.90
40153;DHT22;26371;56.992;23.912;2023-04-25T21:21:14;9.80;99.90
40153;DHT22;26371;56.992;23.912;2023-04-25T21:23:42;9.70;99.90
40153;DHT22;26371;56.992;23.912;2023-04-25T21:26:11;9.70;99.90
40153;DHT22;26371;56.992;23.912;2023-04-25T21:28:39;9.60;99.90
40153;DHT22;26371;56.992;23.912;2023-04-25T21:31:07;9.60;99.90
40153;DHT22;26371;56.992;23.912;2023-04-25T21:33:36;9.60;99.90
40153;DHT22;26371;56.992;23.912;2023-04-25T21:36:04;9.50;99.90
40153;DHT22;26371;56.992;23.912;2023-04-25T21:38:35;9.40;99.90
40153;DHT22;26371;56.992;23.912;2023-04-25T21:41:03;9.30;99.90
40153;DHT22;26371;56.992;23.912;2023-04-25T21:43:32;9.30;99.90